Time;durP1;ratioP1;P1;durP2;ratioP2;P2;SDS_P1;SDS_P2;PMS_P1;PMS_P2;Temp;Humidity;BMP_temperature;BMP_pressure;BME280_temperature;BME280_humidity;BME280_pressure;Samples;Min_cycle;Max_cycle;Signal;HPM_P1;HPM_P2
2022/11/09 00:01:19;;;;;;;3.63;0.93;;;;;;;11.27;92.98;95879.06;5093931;28;20825;-54
2022/11/09 00:03:48;;;;;;;0.50;0.30;;;;;;;11.66;92.55;95953.00;5093408;28;20424;-54
2022/11/09 00:06:16;;;;;;;0.80;0.80;;;;;;;11.67;92.97;95959.91;5093296;28;20437;-54
2022/11/09 00:08:46;;;;;;;0.83;0.83;;;;;;;11.57;92.75;95962.50;5093595;28;20422;-54
2022/11/09 00:11:15;;;;;;;0.50;0.40;;;;;;;11.66;92.68;95961.78;5093474;28;20424;-54
2022/11/09 00:13:44;;;;;;;0.60;0.57;;;;;;;11.24;98.36;95972.44;5093006;28;20417;-54
2022/11/09 00:16:14;;;;;;;0.50;0.50;;;;;;;10.92;100.00;95969.06;5092759;28;20448;-54
2022/11/09 00:18:46;;;;;;;0.70;0.40;;;;;;;10.59;100.00;95961.38;5093413;28;20417;-54
2022/11/09 00:21:15;;;;;;;2.67;1.43;;;;;;;10.83;100.00;95973.22;5093177;28;20435;-55
2022/11/09 00:23:44;;;;;;;0.80;0.80;;;;;;;10.96;100.00;95946.28;5092523;28;20922;-55
2022/11/09 00:26:15;;;;;;;0.80;0.80;;;;;;;11.14;100.00;95967.06;5092827;28;20472;-55
2022/11/09 00:28:44;;;;;;;1.97;1.43;;;;;;;11.23;100.00;95962.88;5093255;28;20444;-55
2022/11/09 00:31:14;;;;;;;2.60;1.00;;;;;;;11.08;100.00;95943.44;5093178;28;20433;-55
2022/11/09 00:33:42;;;;;;;1.43;1.43;;;;;;;11.20;100.00;95959.94;5092850;28;20426;-55
2022/11/09 00:36:12;;;;;;;2.10;1.97;;;;;;;11.04;100.00;95959.06;5092742;28;20762;-55
2022/11/09 00:38:41;;;;;;;4.33;1.17;;;;;;;11.21;100.00;95957.03;5092864;28;20440;-55
2022/11/09 00:41:13;;;;;;;0.70;0.70;;;;;;;11.27;100.00;95963.16;5093010;28;20448;-55
2022/11/09 00:43:42;;;;;;;4.13;0.40;;;;;;;11.27;100.00;95958.66;5092533;28;20469;-55
2022/11/09 00:46:10;;;;;;;0.73;0.73;;;;;;;11.26;98.84;95957.06;5092871;28;20453;-55
2022/11/09 00:48:39;;;;;;;4.83;0.93;;;;;;;11.30;97.29;95954.69;5092767;28;20501;-55
2022/11/09 00:51:07;;;;;;;0.70;0.57;;;;;;;11.21;97.05;95943.75;5092592;28;20431;-55
2022/11/09 00:53:36;;;;;;;0.87;0.87;;;;;;;11.12;97.63;95957.78;5091843;28;20421;-55
2022/11/09 00:56:06;;;;;;;1.03;1.03;;;;;;;11.11;97.07;95949.00;5092344;28;20429;-55
2022/11/09 00:58:37;;;;;;;1.50;1.13;;;;;;;11.09;97.06;95953.78;5092661;28;20425;-54
2022/11/09 01:01:09;;;;;;;2.00;0.30;;;;;;;10.89;97.61;95952.84;5092453;28;20425;-54
2022/11/09 01:03:39;;;;;;;0.40;0.30;;;;;;;11.28;96.08;95948.84;5091768;28;20468;-54
2022/11/09 01:06:08;;;;;;;3.23;1.90;;;;;;;11.28;94.70;95948.84;5092651;28;20436;-55
2022/11/09 01:08:36;;;;;;;0.60;0.60;;;;;;;11.07;95.65;95947.94;5092491;28;20433;-54
2022/11/09 01:11:06;;;;;;;1.13;1.13;;;;;;;11.03;95.97;95949.50;5092295;28;20428;-55
2022/11/09 01:13:37;;;;;;;1.37;1.27;;;;;;;10.98;96.59;95944.16;5092467;28;20529;-55
2022/11/09 01:16:08;;;;;;;2.93;1.10;;;;;;;10.94;96.15;95947.59;5092169;28;20470;-55
2022/11/09 01:18:36;;;;;;;0.40;0.30;;;;;;;10.95;96.64;95943.88;5092389;28;20781;-55
2022/11/09 01:21:07;;;;;;;0.40;0.33;;;;;;;10.94;97.71;95943.09;5092529;28;20448;-55
2022/11/09 01:23:35;;;;;;;3.43;1.57;;;;;;;10.94;97.12;95948.38;5092204;28;20481;-55
2022/11/09 01:26:06;;;;;;;0.60;0.60;;;;;;;10.91;97.18;95948.88;5092208;28;20468;-55
2022/11/09 01:28:36;;;;;;;0.80;0.60;;;;;;;10.84;97.51;95950.97;5091934;28;20443;-54
2022/11/09 01:31:07;;;;;;;0.90;0.90;;;;;;;10.90;96.55;95943.84;5092144;28;20506;-54
2022/11/09 01:33:36;;;;;;;0.40;0.30;;;;;;;11.03;95.14;95949.50;5093130;28;20432;-54
2022/11/09 01:36:06;;;;;;;0.47;0.40;;;;;;;11.02;95.04;95947.91;5098337;28;20829;-55
2022/11/09 01:38:36;;;;;;;2.30;0.40;;;;;;;10.90;96.37;95944.66;5098972;28;20455;-55
2022/11/09 01:41:06;;;;;;;0.70;0.70;;;;;;;10.93;95.59;95952.09;5098494;28;20951;-55
2022/11/09 01:43:36;;;;;;;0.60;0.60;;;;;;;11.04;94.82;95947.66;5098505;28;20472;-55
2022/11/09 01:46:09;;;;;;;0.40;0.40;;;;;;;11.10;94.08;95947.44;5098116;28;20934;-54
2022/11/09 01:48:41;;;;;;;0.87;0.53;;;;;;;11.09;94.09;95945.81;5098647;28;20420;-54
2022/11/09 01:51:16;;;;;;;0.70;0.70;;;;;;;10.48;100.00;95957.03;5098609;28;20824;-54
2022/11/09 01:53:49;;;;;;;0.60;0.60;;;;;;;10.74;98.01;95948.25;5098579;28;20436;-54
2022/11/09 01:56:19;;;;;;;0.90;0.70;;;;;;;10.84;96.05;95943.00;5098323;28;20443;-54
2022/11/09 01:58:53;;;;;;;1.10;1.10;;;;;;;10.81;97.26;95949.63;5098273;28;20429;-55
2022/11/09 02:01:22;;;;;;;1.00;0.50;;;;;;;10.81;96.09;95949.63;5098429;28;20420;-54
2022/11/09 02:03:55;;;;;;;2.47;2.37;;;;;;;10.85;96.14;95944.63;5098604;28;20853;-54
2022/11/09 02:06:27;;;;;;;0.63;0.63;;;;;;;10.70;98.48;95947.16;5098428;28;20928;-55
2022/11/09 02:09:01;;;;;;;0.60;0.37;;;;;;;10.87;96.71;95950.47;5098367;28;20443;-55
2022/11/09 02:11:30;;;;;;;2.67;0.77;;;;;;;10.51;100.00;95951.25;5098293;28;20502;-55
2022/11/09 02:14:02;;;;;;;0.53;0.50;;;;;;;10.70;98.91;95947.94;5098694;28;20430;-54
2022/11/09 02:16:31;;;;;;;0.60;0.60;;;;;;;10.78;98.01;95952.78;5098369;28;20432;-54
2022/11/09 02:19:00;;;;;;;1.00;0.60;;;;;;;10.52;100.00;95956.31;5098339;28;20432;-54
2022/11/09 02:21:31;;;;;;;1.50;0.80;;;;;;;10.15;100.00;95958.88;5098532;28;20433;-54
2022/11/09 02:24:00;;;;;;;1.57;1.47;;;;;;;10.26;100.00;95956.31;5098300;28;20475;-55
2022/11/09 02:26:32;;;;;;;0.70;0.70;;;;;;;10.42;100.00;95950.94;5098345;28;20464;-54
2022/11/09 02:29:04;;;;;;;1.27;0.50;;;;;;;10.43;100.00;95952.50;5098013;28;20902;-55
2022/11/09 02:31:38;;;;;;;0.90;0.90;;;;;;;10.27;100.00;95957.94;5097979;28;20433;-55
2022/11/09 02:34:09;;;;;;;0.77;0.77;;;;;;;10.15;100.00;95961.53;5098180;28;20416;-55
2022/11/09 02:36:39;;;;;;;0.50;0.50;;;;;;;9.66;100.00;95970.53;5097846;28;20435;-54
2022/11/09 02:39:07;;;;;;;1.00;1.00;;;;;;;9.51;100.00;95972.97;5097801;28;20429;-54
2022/11/09 02:41:41;;;;;;;0.70;0.50;;;;;;;9.69;100.00;95967.34;5098088;28;20810;-54
2022/11/09 02:44:10;;;;;;;0.47;0.37;;;;;;;9.77;100.00;95971.41;5097680;28;20467;-54
2022/11/09 02:46:38;;;;;;;0.87;0.70;;;;;;;10.28;100.00;95970.91;5094212;28;20421;-54
2022/11/09 02:49:07;;;;;;;1.17;1.17;;;;;;;10.42;100.00;95950.13;5094487;28;20944;-54
2022/11/09 02:51:35;;;;;;;0.40;0.40;;;;;;;10.46;100.00;95962.63;5094901;28;20421;-54
2022/11/09 02:54:05;;;;;;;1.00;0.87;;;;;;;10.48;100.00;95967.66;5094289;28;20444;-54
2022/11/09 02:56:33;;;;;;;0.60;0.60;;;;;;;10.76;100.00;95968.16;5094578;28;20417;-54
2022/11/09 02:59:02;;;;;;;0.40;0.40;;;;;;;10.68;100.00;95938.66;5094832;28;20428;-55
2022/11/09 03:01:30;;;;;;;10.20;0.90;;;;;;;10.84;100.00;95977.50;5094326;28;20425;-55
2022/11/09 03:03:59;;;;;;;0.50;0.50;;;;;;;10.76;100.00;95975.31;5094111;28;20457;-55
2022/11/09 03:06:34;;;;;;;0.60;0.57;;;;;;;11.01;100.00;95964.88;5094331;28;20428;-55
2022/11/09 03:09:04;;;;;;;0.60;0.37;;;;;;;10.92;100.00;95961.09;5094213;28;20431;-55
2022/11/09 03:11:33;;;;;;;0.93;0.80;;;;;;;10.79;100.00;95972.94;5094499;28;20475;-55
2022/11/09 03:14:01;;;;;;;1.90;0.90;;;;;;;10.76;100.00;95970.00;5094190;28;20437;-55
2022/11/09 03:16:30;;;;;;;0.50;0.40;;;;;;;10.56;100.00;95973.28;5094452;28;20425;-55
2022/11/09 03:18:59;;;;;;;0.97;0.90;;;;;;;10.63;100.00;95970.41;5093969;28;20527;-55
2022/11/09 03:21:28;;;;;;;2.80;0.60;;;;;;;11.05;100.00;95976.59;5094027;28;20432;-55
2022/11/09 03:23:57;;;;;;;0.83;0.83;;;;;;;11.21;100.00;95970.28;5093937;28;20474;-55
2022/11/09 03:26:26;;;;;;;1.17;1.13;;;;;;;10.94;100.00;95974.09;5094031;28;20948;-55
2022/11/09 03:28:55;;;;;;;2.87;1.40;;;;;;;10.96;100.00;95974.63;5094179;28;20831;-55
2022/11/09 03:31:23;;;;;;;5.80;1.70;;;;;;;10.71;100.00;95975.25;5094161;28;20422;-55
2022/11/09 03:33:51;;;;;;;0.90;0.50;;;;;;;10.60;100.00;95979.69;5093778;28;20436;-55
2022/11/09 03:36:20;;;;;;;1.77;1.30;;;;;;;10.92;100.00;95982.31;5094043;28;20439;-54
2022/11/09 03:38:48;;;;;;;1.13;0.57;;;;;;;10.97;100.00;95974.41;5093633;28;20444;-55
2022/11/09 03:41:17;;;;;;;0.60;0.60;;;;;;;11.13;100.00;95978.72;5093935;28;20418;-54
2022/11/09 03:43:46;;;;;;;0.50;0.43;;;;;;;11.00;100.00;95976.56;5093790;28;20472;-55
2022/11/09 03:46:15;;;;;;;0.50;0.50;;;;;;;11.05;100.00;95965.97;5093766;28;20781;-54
2022/11/09 03:48:43;;;;;;;0.70;0.60;;;;;;;11.08;100.00;95977.94;5093526;28;20425;-54
2022/11/09 03:51:11;;;;;;;0.70;0.67;;;;;;;11.19;100.00;95976.91;5093502;28;20425;-55
2022/11/09 03:53:39;;;;;;;0.93;0.67;;;;;;;11.31;100.00;95974.84;5093704;28;20464;-55
2022/11/09 03:56:08;;;;;;;0.60;0.60;;;;;;;11.34;100.00;95966.38;5093891;28;20429;-55
2022/11/09 03:58:36;;;;;;;2.13;0.70;;;;;;;10.88;100.00;95980.44;5092148;28;20431;-54
2022/11/09 04:01:06;;;;;;;0.80;0.80;;;;;;;10.73;100.00;95973.97;5093411;28;20803;-53
2022/11/09 04:03:35;;;;;;;0.50;0.50;;;;;;;10.74;100.00;95982.72;5093349;28;20496;-53
2022/11/09 04:06:03;;;;;;;1.23;1.23;;;;;;;10.61;100.00;95975.19;5093376;28;20426;-53
2022/11/09 04:08:31;;;;;;;1.37;1.37;;;;;;;10.52;100.00;95989.97;5093410;28;21044;-53
2022/11/09 04:11:00;;;;;;;7.23;1.37;;;;;;;10.59;100.00;95982.59;5093021;28;20436;-54
2022/11/09 04:13:28;;;;;;;0.60;0.60;;;;;;;10.84;100.00;95985.44;5093069;28;20429;-53
2022/11/09 04:15:56;;;;;;;1.33;1.23;;;;;;;10.55;100.00;95978.88;5093585;28;20427;-53
2022/11/09 04:18:26;;;;;;;1.43;1.10;;;;;;;10.40;100.00;95990.09;5092937;28;20429;-54
2022/11/09 04:20:54;;;;;;;1.70;1.70;;;;;;;10.64;100.00;95988.75;5092612;28;20835;-54
2022/11/09 04:23:22;;;;;;;2.07;1.97;;;;;;;10.69;100.00;95988.78;5093225;28;20770;-54
2022/11/09 04:25:50;;;;;;;1.13;1.13;;;;;;;10.47;100.00;95992.56;5092402;28;20983;-54
2022/11/09 04:28:19;;;;;;;0.87;0.87;;;;;;;10.23;100.00;96002.66;5092570;28;20430;-54
2022/11/09 04:30:47;;;;;;;0.80;0.80;;;;;;;10.41;100.00;95993.56;5092520;28;20937;-54
2022/11/09 04:33:15;;;;;;;1.00;0.90;;;;;;;10.34;100.00;95995.63;5092880;28;20836;-54
2022/11/09 04:35:46;;;;;;;2.10;1.33;;;;;;;10.56;100.00;95983.91;5092807;28;20441;-54
2022/11/09 04:38:14;;;;;;;1.37;1.37;;;;;;;10.51;100.00;95969.81;5092727;28;20426;-54
2022/11/09 04:40:43;;;;;;;1.60;1.50;;;;;;;10.64;100.00;95993.25;5092304;28;20429;-52
2022/11/09 04:43:14;;;;;;;0.50;0.40;;;;;;;10.90;100.00;95989.75;5092385;28;20417;-53
2022/11/09 04:45:43;;;;;;;0.97;0.97;;;;;;;10.89;100.00;95989.97;5092527;28;20494;-53
2022/11/09 04:48:12;;;;;;;0.93;0.90;;;;;;;10.93;100.00;95989.22;5091430;28;20429;-54
2022/11/09 04:50:40;;;;;;;0.63;0.63;;;;;;;10.81;100.00;95983.28;5092133;28;20440;-53
2022/11/09 04:53:11;;;;;;;1.77;1.57;;;;;;;10.88;100.00;95993.69;5092614;28;20417;-54
2022/11/09 04:55:41;;;;;;;1.27;1.17;;;;;;;10.73;100.00;95997.00;5092338;28;20481;-53
2022/11/09 04:58:09;;;;;;;0.67;0.63;;;;;;;10.75;100.00;95995.72;5091515;28;20442;-54
2022/11/09 05:00:39;;;;;;;0.77;0.77;;;;;;;10.98;100.00;95997.19;5092532;28;20448;-53
2022/11/09 05:03:08;;;;;;;5.90;1.80;;;;;;;10.78;100.00;95999.72;5092102;28;20486;-54
2022/11/09 05:05:38;;;;;;;0.80;0.80;;;;;;;10.88;100.00;95996.34;5092062;28;20498;-54
2022/11/09 05:08:15;;;;;;;2.70;1.17;;;;;;;11.02;100.00;96014.22;5091532;28;20452;-53
2022/11/09 05:10:44;;;;;;;6.23;0.70;;;;;;;11.08;100.00;96007.88;5091985;28;20428;-53
2022/11/09 05:13:13;;;;;;;1.40;1.30;;;;;;;10.89;100.00;96006.69;5091906;28;20424;-54
2022/11/09 05:15:41;;;;;;;0.77;0.40;;;;;;;10.91;100.00;96009.88;5092112;28;20444;-54
2022/11/09 05:18:10;;;;;;;0.80;0.63;;;;;;;11.25;100.00;96003.25;5091785;28;20414;-54
2022/11/09 05:20:38;;;;;;;1.00;0.70;;;;;;;11.05;100.00;96007.63;5091869;28;20429;-54
2022/11/09 05:25:54;;;;;;;0.60;0.60;;;;;;;10.83;100.00;95978.53;5091615;28;20480;-54
2022/11/09 05:28:22;;;;;;;1.07;0.67;;;;;;;11.02;100.00;96003.63;5091573;28;20428;-55
2022/11/09 05:30:50;;;;;;;2.83;1.20;;;;;;;10.81;100.00;96012.47;5091994;28;20421;-55
2022/11/09 05:33:18;;;;;;;2.07;1.97;;;;;;;10.84;100.00;96020.72;5091796;28;20797;-54
2022/11/09 05:35:47;;;;;;;4.47;0.53;;;;;;;11.02;100.00;96027.50;5091480;28;20439;-54
2022/11/09 05:38:15;;;;;;;1.13;1.03;;;;;;;11.28;100.00;96023.94;5091690;28;20442;-54
2022/11/09 05:40:43;;;;;;;1.13;0.70;;;;;;;11.41;100.00;96026.13;5091361;28;20944;-54
2022/11/09 05:43:13;;;;;;;0.63;0.63;;;;;;;11.13;100.00;96031.03;5091874;28;20418;-54
2022/11/09 05:45:42;;;;;;;0.87;0.87;;;;;;;11.04;100.00;96028.03;5091012;28;20484;-54
2022/11/09 05:48:12;;;;;;;1.30;1.20;;;;;;;11.22;100.00;96034.78;5091459;28;20421;-54
2022/11/09 05:50:41;;;;;;;0.90;0.90;;;;;;;11.23;100.00;96026.56;5091716;28;20852;-54
2022/11/09 05:53:10;;;;;;;1.53;1.43;;;;;;;11.70;100.00;96033.75;5091496;28;20427;-55
2022/11/09 05:55:39;;;;;;;0.60;0.60;;;;;;;11.61;100.00;96037.94;5091495;28;20435;-54
2022/11/09 05:58:07;;;;;;;1.33;1.30;;;;;;;11.63;100.00;96046.44;5091831;28;20422;-55
2022/11/09 06:00:37;;;;;;;1.23;1.23;;;;;;;11.53;100.00;96049.84;5091701;28;20431;-55
2022/11/09 06:03:07;;;;;;;1.60;1.50;;;;;;;11.52;100.00;96028.84;5090725;28;20461;-55
2022/11/09 06:05:36;;;;;;;4.53;2.47;;;;;;;11.85;100.00;96045.25;5091515;28;20473;-55
2022/11/09 06:08:06;;;;;;;1.33;1.33;;;;;;;10.99;100.00;95959.03;5091664;28;20793;-55
2022/11/09 06:10:34;;;;;;;4.10;2.30;;;;;;;11.37;100.00;96062.22;5091813;28;20441;-54
2022/11/09 06:13:03;;;;;;;2.37;1.63;;;;;;;11.29;100.00;96046.78;5091868;28;20424;-54
2022/11/09 06:15:31;;;;;;;2.10;2.00;;;;;;;11.52;100.00;96058.06;5091805;28;20426;-54
2022/11/09 06:18:01;;;;;;;2.90;2.80;;;;;;;11.35;100.00;96045.78;5091758;28;20858;-55
2022/11/09 06:20:30;;;;;;;1.80;1.70;;;;;;;11.68;100.00;96054.44;5091939;28;20433;-54
2022/11/09 06:22:59;;;;;;;11.90;2.90;;;;;;;11.42;100.00;96059.59;5095162;28;20887;-55
2022/11/09 06:25:31;;;;;;;1.13;1.10;;;;;;;11.25;100.00;96048.34;5095102;28;20888;-54
2022/11/09 06:28:01;;;;;;;1.50;1.40;;;;;;;11.53;100.00;96063.13;5095420;28;20444;-54
2022/11/09 06:30:30;;;;;;;0.90;0.90;;;;;;;11.35;100.00;95987.38;5095520;28;20433;-53
2022/11/09 06:32:59;;;;;;;2.00;0.80;;;;;;;11.67;100.00;96060.78;5095318;28;20443;-54
2022/11/09 06:35:29;;;;;;;1.33;1.13;;;;;;;11.53;100.00;96046.41;5095486;28;20452;-55
2022/11/09 06:37:59;;;;;;;1.07;0.97;;;;;;;11.84;100.00;96058.81;5095093;28;20447;-55
2022/11/09 06:40:27;;;;;;;0.80;0.80;;;;;;;11.75;100.00;96065.66;5095294;28;20512;-55
2022/11/09 06:42:58;;;;;;;5.30;1.63;;;;;;;11.76;100.00;96059.31;5095027;28;20942;-55
2022/11/09 06:45:27;;;;;;;1.23;1.13;;;;;;;11.64;100.00;96061.34;5095032;28;20469;-53
2022/11/09 06:47:56;;;;;;;1.27;1.17;;;;;;;11.73;100.00;96070.44;5095241;28;20425;-53
2022/11/09 06:50:25;;;;;;;0.70;0.70;;;;;;;11.64;100.00;96072.72;5094781;28;20425;-54
2022/11/09 06:52:58;;;;;;;0.67;0.57;;;;;;;11.85;100.00;96068.38;5094699;28;20427;-54
2022/11/09 06:55:27;;;;;;;1.03;0.93;;;;;;;12.03;100.00;96073.22;5094855;28;20434;-54
2022/11/09 06:57:55;;;;;;;0.80;0.70;;;;;;;12.18;100.00;96061.84;5094940;28;20782;-54
2022/11/09 07:00:25;;;;;;;0.67;0.67;;;;;;;12.26;100.00;96048.88;5094398;28;20443;-54
2022/11/09 07:02:54;;;;;;;0.50;0.50;;;;;;;12.31;100.00;96064.84;5094694;28;20421;-55
2022/11/09 07:05:22;;;;;;;1.30;1.30;;;;;;;12.32;100.00;96060.31;5094290;28;20463;-55
2022/11/09 07:07:50;;;;;;;0.80;0.70;;;;;;;12.38;100.00;96067.25;5094842;28;20437;-56
2022/11/09 07:10:20;;;;;;;0.97;0.97;;;;;;;12.31;100.00;96064.84;5094480;28;20442;-55
2022/11/09 07:12:49;;;;;;;1.93;1.83;;;;;;;12.12;100.00;96061.03;5094731;28;20420;-55
2022/11/09 07:15:18;;;;;;;3.80;2.10;;;;;;;12.25;100.00;96060.56;5094053;28;20436;-55
2022/11/09 07:17:46;;;;;;;1.00;1.00;;;;;;;12.44;100.00;96064.34;5094437;28;20433;-55
2022/11/09 07:20:15;;;;;;;1.10;1.00;;;;;;;12.67;100.00;96055.84;5093522;28;20427;-55
2022/11/09 07:22:43;;;;;;;1.33;1.23;;;;;;;12.70;99.83;96063.31;5094345;28;20762;-55
2022/11/09 07:25:12;;;;;;;3.10;2.03;;;;;;;12.54;99.27;96052.94;5093945;28;20438;-56
2022/11/09 07:27:42;;;;;;;3.50;3.30;;;;;;;12.67;99.73;96063.84;5093896;28;20485;-54
2022/11/09 07:30:11;;;;;;;1.40;1.30;;;;;;;12.66;100.00;96056.94;5093800;28;20440;-54
2022/11/09 07:32:41;;;;;;;2.20;1.90;;;;;;;12.62;99.80;96050.53;5093816;28;20423;-54
2022/11/09 07:35:29;;;;;;;1.93;1.83;;;;;;;12.67;100.00;96063.06;5093484;28;20498;-54
2022/11/09 07:38:00;;;;;;;5.10;1.43;;;;;;;12.65;100.00;96060.66;5094045;28;20461;-54
2022/11/09 07:40:30;;;;;;;2.43;2.20;;;;;;;12.82;99.86;96062.28;5094036;28;20435;-54
2022/11/09 07:43:00;;;;;;;3.93;1.97;;;;;;;13.08;99.08;96069.25;5093997;28;20476;-54
2022/11/09 07:45:30;;;;;;;2.03;1.93;;;;;;;13.00;96.31;95984.59;5093778;28;20487;-54
2022/11/09 07:48:00;;;;;;;1.30;1.20;;;;;;;14.49;88.85;96040.38;5093798;28;20905;-54
2022/11/09 07:50:29;;;;;;;1.10;1.10;;;;;;;14.91;85.61;96060.34;5093647;28;20526;-54
2022/11/09 07:52:59;;;;;;;0.60;0.60;;;;;;;15.08;81.36;96063.44;5093744;28;20786;-54
2022/11/09 07:55:29;;;;;;;0.80;0.80;;;;;;;14.93;81.49;96060.88;5093552;28;20503;-55
2022/11/09 07:58:00;;;;;;;2.80;1.17;;;;;;;15.06;81.26;96057.56;5093598;28;20456;-55
2022/11/09 08:00:30;;;;;;;0.90;0.80;;;;;;;16.07;77.76;96049.41;5093783;28;20427;-55
2022/11/09 08:02:58;;;;;;;0.90;0.90;;;;;;;16.14;75.11;96052.50;5093160;28;20436;-55
2022/11/09 08:05:27;;;;;;;2.57;2.37;;;;;;;16.39;73.72;96038.81;5093271;28;20444;-56
2022/11/09 08:07:56;;;;;;;12.90;2.03;;;;;;;16.10;74.74;96056.84;5093030;28;20440;-57
2022/11/09 08:10:25;;;;;;;4.83;1.17;;;;;;;17.25;71.72;96048.31;5093469;28;20433;-59
2022/11/09 08:12:55;;;;;;;0.77;0.77;;;;;;;18.09;66.90;96030.94;5093230;28;20446;-58
2022/11/09 08:15:25;;;;;;;9.23;2.07;;;;;;;19.25;63.21;96046.41;5092665;28;20432;-59
2022/11/09 08:17:54;;;;;;;2.47;1.23;;;;;;;19.84;59.98;96040.59;5092908;28;20439;-58
2022/11/09 08:20:22;;;;;;;1.60;1.50;;;;;;;19.19;60.82;96034.19;5093505;28;20420;-57
2022/11/09 08:22:51;;;;;;;2.20;2.00;;;;;;;18.96;60.29;96036.88;5093118;28;20433;-56
2022/11/09 08:25:19;;;;;;;1.10;0.83;;;;;;;18.91;59.52;96044.25;5092379;28;20437;-56
2022/11/09 08:27:47;;;;;;;4.20;1.70;;;;;;;18.83;60.29;96034.22;5092847;28;20510;-56
2022/11/09 08:30:19;;;;;;;2.20;1.83;;;;;;;19.60;58.49;96035.59;5092836;28;20812;-56
2022/11/09 08:32:49;;;;;;;4.97;1.57;;;;;;;19.95;56.64;96044.63;5092723;28;20435;-56
2022/11/09 08:35:20;;;;;;;2.00;1.90;;;;;;;19.90;55.56;96042.06;5092708;28;20432;-55
2022/11/09 08:37:50;;;;;;;3.27;1.97;;;;;;;19.74;55.26;96042.75;5092942;28;20440;-56
2022/11/09 08:40:21;;;;;;;2.00;1.90;;;;;;;19.93;53.95;96048.72;5092587;28;20967;-56
2022/11/09 08:42:50;;;;;;;2.27;2.07;;;;;;;20.38;53.46;96034.00;5091934;28;20425;-56
2022/11/09 08:45:19;;;;;;;1.37;1.27;;;;;;;20.50;52.10;96036.09;5092414;28;20413;-54
2022/11/09 08:47:49;;;;;;;2.17;2.07;;;;;;;20.87;53.18;96038.19;5092533;28;20472;-54
2022/11/09 08:50:17;;;;;;;1.90;0.90;;;;;;;21.95;50.96;96035.22;5097530;28;20424;-54
2022/11/09 08:52:45;;;;;;;2.43;2.10;;;;;;;22.44;49.19;96029.06;5112888;28;20919;-52
2022/11/09 08:55:14;;;;;;;2.77;1.50;;;;;;;21.62;50.09;96023.38;5113017;28;20787;-52
2022/11/09 08:57:42;;;;;;;2.60;1.73;;;;;;;22.45;50.26;96027.19;5112813;28;20424;-53
2022/11/09 09:00:11;;;;;;;2.63;2.53;;;;;;;23.64;45.88;96028.16;5112938;28;20435;-53
2022/11/09 09:02:40;;;;;;;3.30;1.20;;;;;;;24.48;45.87;96024.75;5112672;28;20420;-53
2022/11/09 09:05:10;;;;;;;1.37;1.27;;;;;;;22.69;46.00;96022.75;5112667;28;20920;-52
2022/11/09 09:07:38;;;;;;;3.47;1.10;;;;;;;21.97;47.12;96024.88;5112595;28;20467;-53
2022/11/09 09:10:07;;;;;;;3.07;2.83;;;;;;;21.96;47.90;96017.91;5112442;28;20514;-53
2022/11/09 09:12:35;;;;;;;1.67;1.30;;;;;;;21.94;47.53;96020.91;5112931;28;20443;-52
2022/11/09 09:15:04;;;;;;;1.73;1.33;;;;;;;22.40;47.66;96017.34;5112589;28;21096;-52
2022/11/09 09:17:34;;;;;;;1.27;1.20;;;;;;;23.59;46.24;96014.84;5112483;28;20877;-53
2022/11/09 09:20:02;;;;;;;2.33;2.23;;;;;;;22.82;45.72;96012.03;5112498;28;20523;-53
2022/11/09 09:22:33;;;;;;;1.93;1.80;;;;;;;23.81;44.06;96009.00;5112465;28;20424;-53
2022/11/09 09:25:01;;;;;;;1.37;1.27;;;;;;;23.54;43.97;96015.03;5112082;28;20435;-53
2022/11/09 09:27:29;;;;;;;1.40;1.30;;;;;;;24.50;43.74;96000.00;5111997;28;20491;-53
2022/11/09 09:29:58;;;;;;;1.70;1.60;;;;;;;24.12;42.97;96002.28;5112563;28;20428;-53
2022/11/09 09:32:28;;;;;;;1.00;1.00;;;;;;;23.74;43.56;96000.66;5112293;28;20924;-53
2022/11/09 09:34:56;;;;;;;1.33;1.23;;;;;;;24.30;43.60;95993.59;5112339;28;20432;-53
2022/11/09 09:37:24;;;;;;;1.77;1.37;;;;;;;25.02;42.09;95995.38;5112559;28;20427;-53
2022/11/09 09:39:54;;;;;;;3.33;2.00;;;;;;;25.34;43.02;95981.91;5112267;28;20444;-57
2022/11/09 09:42:29;;;;;;;1.47;1.37;;;;;;;24.23;42.70;95990.69;5112107;28;20432;-54
2022/11/09 09:45:02;;;;;;;2.80;0.83;;;;;;;24.87;42.25;95985.25;5112462;28;20455;-53
2022/11/09 09:47:45;;;;;;;4.30;1.97;;;;;;;25.17;42.17;95972.19;5112139;28;20479;-53
2022/11/09 09:50:18;;;;;;;2.03;1.93;;;;;;;25.30;42.07;95965.53;5112104;28;20930;-53
2022/11/09 09:52:51;;;;;;;0.90;0.90;;;;;;;25.20;42.03;95971.47;5111173;28;21029;-53
2022/11/09 09:55:43;;;;;;;4.00;1.70;;;;;;;25.23;40.66;95959.91;5114699;28;20440;-54
2022/11/09 09:58:14;;;;;;;0.77;0.77;;;;;;;25.57;40.76;95970.19;5116525;28;20435;-54
2022/11/09 10:00:43;;;;;;;1.50;1.40;;;;;;;26.42;41.53;95964.91;5116851;28;20423;-54
2022/11/09 10:03:17;;;;;;;1.60;1.50;;;;;;;26.42;40.28;95953.22;5116417;28;20432;-56
2022/11/09 10:05:55;;;;;;;1.90;1.80;;;;;;;25.01;41.54;95964.00;5116193;28;20427;-54
2022/11/09 10:08:34;;;;;;;2.63;0.57;;;;;;;26.14;41.27;95961.53;5116253;28;20474;-54
2022/11/09 10:11:16;;;;;;;4.40;1.50;;;;;;;25.57;40.99;95958.53;5115981;28;20427;-54
2022/11/09 10:14:24;;;;;;;2.10;1.90;;;;;;;25.58;40.91;95960.09;5116267;28;20705;-54
2022/11/09 10:17:01;;;;;;;1.67;1.40;;;;;;;25.18;41.37;95943.91;5115681;28;20443;-54
2022/11/09 10:19:45;;;;;;;1.83;1.73;;;;;;;24.24;42.19;95945.38;5115620;28;20435;-54
2022/11/09 10:22:22;;;;;;;1.80;1.70;;;;;;;25.15;40.65;95926.38;5115623;28;20442;-55
2022/11/09 10:24:58;;;;;;;1.33;1.33;;;;;;;26.64;39.33;95938.19;5115833;28;20446;-54
2022/11/09 10:27:52;;;;;;;1.30;1.23;;;;;;;26.47;38.99;95936.63;5115392;28;20475;-54
2022/11/09 10:30:22;;;;;;;0.93;0.67;;;;;;;26.25;38.69;95831.31;5115600;28;20926;-55
2022/11/09 10:32:52;;;;;;;1.57;1.47;;;;;;;26.86;38.29;95932.06;5115821;28;20431;-54
2022/11/09 10:35:24;;;;;;;1.33;1.30;;;;;;;26.03;39.36;95925.16;5115555;28;20434;-54
2022/11/09 10:37:53;;;;;;;1.13;1.03;;;;;;;26.99;38.29;95868.19;5115595;28;20419;-54
2022/11/09 10:40:26;;;;;;;6.53;2.17;;;;;;;25.98;39.49;95911.03;5114918;28;20435;-54
2022/11/09 10:42:58;;;;;;;1.87;1.77;;;;;;;25.90;39.91;95909.28;5115375;28;20428;-53
2022/11/09 10:45:30;;;;;;;1.50;1.40;;;;;;;26.92;39.46;95901.47;5115330;28;20436;-53
2022/11/09 10:47:59;;;;;;;0.90;0.90;;;;;;;29.27;37.46;95900.03;5115171;28;20466;-54
2022/11/09 10:50:34;;;;;;;1.33;1.33;;;;;;;29.05;34.71;95890.03;5115556;27;20428;-52
2022/11/09 10:53:13;;;;;;;0.83;0.60;;;;;;;28.90;36.31;95889.09;5115212;28;20419;-52
2022/11/09 10:55:51;;;;;;;0.80;0.80;;;;;;;27.37;37.41;95889.88;5115034;28;20431;-52
2022/11/09 10:58:47;;;;;;;5.20;1.07;;;;;;;26.08;39.30;95891.47;5115081;28;20796;-52
2022/11/09 11:01:18;;;;;;;1.00;1.00;;;;;;;26.02;39.34;95838.56;5113013;28;20447;-52
2022/11/09 11:03:50;;;;;;;8.07;1.93;;;;;;;27.98;38.76;95883.50;5114535;27;20428;-52
2022/11/09 11:06:26;;;;;;;1.10;1.07;;;;;;;27.44;37.83;95878.34;5114277;28;20440;-52
2022/11/09 11:09:15;;;;;;;1.83;1.83;;;;;;;28.11;36.80;95869.31;5114481;28;20467;-52
2022/11/09 11:11:43;;;;;;;2.03;1.07;;;;;;;26.70;38.02;95883.13;5114634;28;20438;-53
2022/11/09 11:14:17;;;;;;;1.83;1.73;;;;;;;26.15;38.24;95816.38;5114597;28;20424;-53
2022/11/09 11:16:52;;;;;;;1.83;1.73;;;;;;;25.97;39.38;95866.00;5113973;28;20942;-53
2022/11/09 11:19:32;;;;;;;2.60;1.23;;;;;;;26.81;38.43;95867.84;5114610;27;20427;-53
2022/11/09 11:22:21;;;;;;;1.73;1.60;;;;;;;26.81;37.77;95856.97;5114706;28;20426;-53
2022/11/09 11:24:57;;;;;;;1.00;0.80;;;;;;;27.28;37.79;95858.59;5114505;28;20427;-53
2022/11/09 11:27:36;;;;;;;1.43;1.43;;;;;;;25.94;39.10;95853.91;5114161;28;20866;-53
2022/11/09 11:30:12;;;;;;;2.53;1.90;;;;;;;26.56;38.59;95844.78;5114514;28;20943;-53
2022/11/09 11:32:40;;;;;;;0.50;0.50;;;;;;;28.15;37.23;95839.41;5114444;28;20454;-53
2022/11/09 11:35:23;;;;;;;0.80;0.80;;;;;;;27.68;37.39;95851.53;5114543;28;20447;-53
2022/11/09 11:38:03;;;;;;;1.67;1.50;;;;;;;26.03;38.75;95829.28;5114306;28;20430;-53
2022/11/09 11:40:38;;;;;;;0.63;0.63;;;;;;;25.93;39.34;95838.78;5114067;28;20431;-53
2022/11/09 11:43:18;;;;;;;1.40;0.83;;;;;;;27.03;37.62;95841.81;5113918;28;20438;-53
2022/11/09 11:45:55;;;;;;;1.67;1.57;;;;;;;27.78;36.73;95839.22;5114445;28;20455;-52
2022/11/09 11:48:36;;;;;;;2.60;1.57;;;;;;;25.47;39.76;95831.47;5113815;28;21006;-53